Terminal Aerodrome Forecast
Issued by NWS Rapid City, SD

Home | Current Version | Previous Version | Graphics & Text | Print | Product List | Glossary On
Versions: 1 2 3 4 5 6 7 8 9 10 11 12 13 14 15 16 17 18
000
FTUS43 KUNR 271123
TAFRAP
TAF
KRAP 271123Z 2712/2812 14008KT P6SM BKN120
     FM271800 17017KT P6SM -SHRA BKN060 OVC100
      TEMPO 2718/2722 3SM TSRA BKN040CB
     FM272200 23008KT P6SM BKN100=

USA.gov is the U.S. government's official web portal to all federal, state and local government web resources and services.